createdAt,value
2018-01-16T00:01:33.350Z,992.49
2018-01-16T00:06:33.282Z,992.53
2018-01-16T00:11:33.214Z,992.57
2018-01-16T00:16:33.150Z,992.47
2018-01-16T00:21:33.084Z,992.54
2018-01-16T00:26:33.010Z,992.42
2018-01-16T00:31:32.952Z,992.44
2018-01-16T00:36:32.971Z,992.41
2018-01-16T00:41:32.806Z,992.31
2018-01-16T00:46:32.731Z,992.31
2018-01-16T00:51:32.662Z,992.24
2018-01-16T00:56:32.640Z,992.17
2018-01-16T01:01:32.524Z,992.11
2018-01-16T01:06:32.449Z,992.04
2018-01-16T01:11:32.380Z,992.04
2018-01-16T01:16:32.317Z,991.9
2018-01-16T01:21:32.235Z,991.95
2018-01-16T01:26:32.193Z,991.88
2018-01-16T01:31:32.146Z,991.82
2018-01-16T01:36:32.026Z,991.77
2018-01-16T01:41:31.983Z,991.75
2018-01-16T01:46:31.885Z,991.67
2018-01-16T01:51:31.811Z,991.7
2018-01-16T01:56:31.741Z,991.77
2018-01-16T02:01:31.750Z,991.75
2018-01-16T02:06:31.587Z,991.66
2018-01-16T02:11:31.519Z,991.51
2018-01-16T02:16:31.447Z,991.5
2018-01-16T02:21:31.369Z,991.53
2018-01-16T02:26:31.301Z,991.46
2018-01-16T02:31:31.227Z,991.47
2018-01-16T02:36:31.154Z,991.32
2018-01-16T02:41:31.073Z,991.24
2018-01-16T02:46:31.004Z,991.17
2018-01-16T02:51:30.924Z,991.03
2018-01-16T02:56:30.842Z,990.91
2018-01-16T03:01:30.767Z,990.92
2018-01-16T03:06:30.685Z,990.85
2018-01-16T03:11:30.604Z,990.94
2018-01-16T03:16:30.527Z,991.01
2018-01-16T03:21:30.449Z,991.03
2018-01-16T03:26:30.387Z,990.99
2018-01-16T03:31:30.289Z,990.84
2018-01-16T03:36:30.215Z,990.6
2018-01-16T03:41:30.131Z,990.58
2018-01-16T03:46:30.048Z,990.39
2018-01-16T03:51:29.984Z,990.4
2018-01-16T03:56:29.892Z,990.39
2018-01-16T04:01:29.835Z,990.39
2018-01-16T04:06:29.733Z,990.28
2018-01-16T04:11:29.650Z,990.35
2018-01-16T04:16:29.571Z,990.27
2018-01-16T04:21:29.490Z,990.25
2018-01-16T04:26:29.416Z,990.14
2018-01-16T04:31:29.330Z,990.17
2018-01-16T04:36:29.246Z,990.14
2018-01-16T04:41:29.167Z,990.21
2018-01-16T04:46:29.104Z,990.05
2018-01-16T04:51:29.029Z,989.99
2018-01-16T04:56:28.924Z,989.94
2018-01-16T05:01:28.844Z,989.88
2018-01-16T05:06:28.762Z,989.9
2018-01-16T05:11:28.684Z,989.86
2018-01-16T05:16:28.610Z,989.92
2018-01-16T05:21:28.528Z,989.9
2018-01-16T05:26:28.458Z,989.98
2018-01-16T05:31:28.372Z,990.03
2018-01-16T05:36:28.296Z,989.98
2018-01-16T05:41:28.222Z,990.02
2018-01-16T05:46:28.147Z,990.03
2018-01-16T05:51:28.072Z,990
2018-01-16T05:56:27.999Z,990.08
2018-01-16T06:01:28.044Z,990.1
2018-01-16T06:06:27.852Z,990.05
2018-01-16T06:11:27.777Z,990.02
2018-01-16T06:16:27.713Z,990.01
2018-01-16T06:21:27.640Z,989.88
2018-01-16T06:26:27.565Z,989.82
2018-01-16T06:31:27.497Z,989.92
2018-01-16T06:36:27.431Z,989.82
2018-01-16T06:41:27.359Z,990.13
2018-01-16T06:46:27.337Z,990.55
2018-01-16T06:51:27.217Z,990.46
2018-01-16T06:56:27.145Z,990.48
2018-01-16T07:01:27.081Z,990.49
2018-01-16T07:06:27.033Z,990.52
2018-01-16T07:11:26.936Z,990.57
2018-01-16T07:16:26.867Z,990.42
2018-01-16T07:21:26.795Z,990.23
2018-01-16T07:26:26.725Z,990.21
2018-01-16T07:31:26.653Z,990.33
2018-01-16T07:36:26.596Z,990.38
2018-01-16T07:41:26.514Z,990.33
2018-01-16T07:46:26.441Z,990.3
2018-01-16T07:51:26.367Z,990.25
2018-01-16T07:56:26.298Z,990.28
2018-01-16T08:01:26.275Z,990.23
2018-01-16T08:06:26.152Z,990.37
2018-01-16T08:11:26.089Z,990.31
2018-01-16T08:16:26.008Z,990.35
2018-01-16T08:21:25.944Z,990.38
2018-01-16T08:26:25.876Z,990.33
2018-01-16T08:31:25.800Z,990.35
2018-01-16T08:36:25.722Z,990.41
2018-01-16T08:41:25.652Z,990.41
2018-01-16T08:46:25.586Z,990.38
2018-01-16T08:51:25.514Z,990.41
2018-01-16T08:56:25.440Z,990.48
2018-01-16T09:01:25.372Z,990.55
2018-01-16T09:06:25.300Z,990.58
2018-01-16T09:11:25.230Z,991.77
2018-01-16T09:16:25.156Z,991.6
2018-01-16T09:21:25.084Z,991.42
2018-01-16T09:26:25.012Z,991.31
2018-01-16T09:31:24.954Z,991.32
2018-01-16T09:36:24.916Z,991.37
2018-01-16T09:41:24.821Z,991.4
2018-01-16T09:46:24.726Z,991.39
2018-01-16T09:51:24.648Z,991.45
2018-01-16T09:56:24.574Z,991.5
2018-01-16T10:01:24.503Z,991.51
2018-01-16T10:06:24.432Z,991.54
2018-01-16T10:11:24.374Z,991.59
2018-01-16T10:16:24.291Z,991.65
2018-01-16T10:21:24.220Z,991.77
2018-01-16T10:26:24.147Z,991.81
2018-01-16T10:31:24.073Z,991.78
2018-01-16T10:36:24.004Z,991.81
2018-01-16T10:41:23.931Z,991.91
2018-01-16T10:46:23.862Z,991.9
2018-01-16T10:51:23.785Z,992.06
2018-01-16T10:56:23.766Z,992.13
2018-01-16T11:01:23.641Z,992.2
2018-01-16T11:06:23.569Z,992.27
2018-01-16T11:11:23.498Z,992.31
2018-01-16T11:16:23.425Z,992.34
2018-01-16T11:21:23.353Z,992.37
2018-01-16T11:26:23.293Z,992.39
2018-01-16T11:31:23.218Z,992.29
2018-01-16T11:36:23.189Z,992.39
2018-01-16T11:41:23.067Z,992.36
2018-01-16T11:46:23.009Z,992.43
2018-01-16T11:51:22.929Z,992.44
2018-01-16T11:56:22.853Z,992.43
2018-01-16T12:01:22.782Z,992.56
2018-01-16T12:06:22.711Z,992.54
2018-01-16T12:11:22.647Z,992.61
2018-01-16T12:16:22.577Z,992.62
2018-01-16T12:21:22.580Z,992.61
2018-01-16T12:26:22.433Z,992.68
2018-01-16T12:31:22.364Z,992.66
2018-01-16T12:36:22.299Z,992.71
2018-01-16T12:41:22.229Z,992.67
2018-01-16T12:46:22.159Z,992.73
2018-01-16T12:51:22.089Z,992.71
2018-01-16T12:56:22.023Z,992.65
2018-01-16T13:01:21.950Z,992.64
2018-01-16T13:06:21.926Z,992.81
2018-01-16T13:11:21.808Z,992.85
2018-01-16T13:16:21.745Z,992.9
2018-01-16T13:21:21.664Z,992.97
2018-01-16T13:26:21.607Z,992.8
2018-01-16T13:31:21.531Z,992.81
2018-01-16T13:36:21.456Z,992.69
2018-01-16T13:41:21.386Z,992.72
2018-01-16T13:46:21.314Z,992.77
2018-01-16T13:51:21.245Z,992.89
2018-01-16T13:56:21.172Z,992.96
2018-01-16T14:01:21.100Z,993
2018-01-16T14:06:21.038Z,993.02
2018-01-16T14:11:20.958Z,992.94
2018-01-16T14:16:20.886Z,992.98
2018-01-16T14:21:20.816Z,993.07
2018-01-16T14:26:20.742Z,993.13
2018-01-16T14:31:20.755Z,993.13
2018-01-16T14:36:20.607Z,993.17
2018-01-16T14:41:20.527Z,993.18
2018-01-16T14:46:20.456Z,993.25
2018-01-16T14:51:20.382Z,993.21
2018-01-16T14:56:20.349Z,993.32
2018-01-16T15:01:20.243Z,993.43
2018-01-16T15:06:20.178Z,993.46
2018-01-16T15:11:20.095Z,993.37
2018-01-16T15:16:20.026Z,993.49
2018-01-16T15:21:19.962Z,993.53
2018-01-16T15:26:19.902Z,993.61
2018-01-16T15:31:19.817Z,993.61
2018-01-16T15:36:19.801Z,993.66
2018-01-16T15:41:19.677Z,993.65
2018-01-16T15:46:19.603Z,993.69
2018-01-16T15:51:19.536Z,993.69
2018-01-16T15:56:19.468Z,993.65
2018-01-16T16:01:19.393Z,993.75
2018-01-16T16:06:19.332Z,993.71
2018-01-16T16:11:19.263Z,993.72
2018-01-16T16:16:19.187Z,993.66
2018-01-16T16:21:19.122Z,993.7
2018-01-16T16:26:19.049Z,993.64
2018-01-16T16:31:18.983Z,993.63
2018-01-16T16:36:18.917Z,993.61
2018-01-16T16:41:18.866Z,993.58
2018-01-16T16:46:18.777Z,993.52
2018-01-16T16:51:18.713Z,993.37
